Terminal Aerodrome Forecast
Issued by NWS Pueblo, CO

Home | Current Version | Previous Version | Text Only | Print | Product List | Glossary On
Versions: 1 2 3 4 5 6 7 8 9 10 11 12 13 14 15 16 17 18 19 20 21 22 23 24 25 26 27 28
000
FTUS45 KPUB 132333
TAFALS
TAF
KALS 132333Z 1400/1424 VRB06KT P6SM SCT110
     FM140300 VRB06KT P6SM BKN090
     FM140800 14009KT P6SM VCSH BKN030 OVC060
     FM141600 03006KT P6SM VCSH BKN020 OVC040
     FM142000 01006KT P6SM SCT150=

USA.gov is the U.S. government's official web portal to all federal, state and local government web resources and services.